sensor_id;sensor_type;location;lat;lon;timestamp;pressure;altitude;pressure_sealevel;temperature
74539;BMP180;66042;51.090;-115.340;2023-03-05T00:01:30;85569.20;;;-3.70
74539;BMP180;66042;51.090;-115.340;2023-03-05T00:04:04;85569.20;;;-3.80
74539;BMP180;66042;51.090;-115.340;2023-03-05T00:06:32;85572.20;;;-3.90
74539;BMP180;66042;51.090;-115.340;2023-03-05T00:08:59;85573.80;;;-4.00
74539;BMP180;66042;51.090;-115.340;2023-03-05T00:11:29;85574.20;;;-4.10
74539;BMP180;66042;51.090;-115.340;2023-03-05T00:13:59;85579.40;;;-4.28
74539;BMP180;66042;51.090;-115.340;2023-03-05T00:16:27;85583.60;;;-4.52
74539;BMP180;66042;51.090;-115.340;2023-03-05T00:18:57;85579.60;;;-4.70
74539;BMP180;66042;51.090;-115.340;2023-03-05T00:21:29;85582.80;;;-4.80
74539;BMP180;66042;51.090;-115.340;2023-03-05T00:23:58;85584.60;;;-4.90
74539;BMP180;66042;51.090;-115.340;2023-03-05T00:26:30;85582.80;;;-5.06
74539;BMP180;66042;51.090;-115.340;2023-03-05T00:28:59;85589.40;;;-5.20
74539;BMP180;66042;51.090;-115.340;2023-03-05T00:31:29;85589.00;;;-5.30
74539;BMP180;66042;51.090;-115.340;2023-03-05T00:34:00;85588.20;;;-5.46
74539;BMP180;66042;51.090;-115.340;2023-03-05T00:36:29;85591.80;;;-5.50
74539;BMP180;66042;51.090;-115.340;2023-03-05T00:38:57;85594.60;;;-5.50
74539;BMP180;66042;51.090;-115.340;2023-03-05T00:41:24;85597.40;;;-5.62
74539;BMP180;66042;51.090;-115.340;2023-03-05T00:43:51;85601.40;;;-5.72
74539;BMP180;66042;51.090;-115.340;2023-03-05T00:46:18;85600.20;;;-5.88
74539;BMP180;66042;51.090;-115.340;2023-03-05T00:48:46;85597.80;;;-6.00
74539;BMP180;66042;51.090;-115.340;2023-03-05T00:51:13;85598.60;;;-6.10
74539;BMP180;66042;51.090;-115.340;2023-03-05T00:53:40;85604.60;;;-6.20
74539;BMP180;66042;51.090;-115.340;2023-03-05T00:56:07;85604.60;;;-6.20
74539;BMP180;66042;51.090;-115.340;2023-03-05T00:58:34;85604.60;;;-6.30
74539;BMP180;66042;51.090;-115.340;2023-03-05T01:01:02;85609.40;;;-6.30
74539;BMP180;66042;51.090;-115.340;2023-03-05T01:03:31;85613.80;;;-6.38
74539;BMP180;66042;51.090;-115.340;2023-03-05T01:06:00;85618.80;;;-6.42
74539;BMP180;66042;51.090;-115.340;2023-03-05T01:08:27;85621.20;;;-6.50
74539;BMP180;66042;51.090;-115.340;2023-03-05T01:10:54;85628.40;;;-6.50
74539;BMP180;66042;51.090;-115.340;2023-03-05T01:13:21;85628.00;;;-6.50
74539;BMP180;66042;51.090;-115.340;2023-03-05T01:15:49;85632.20;;;-6.60
74539;BMP180;66042;51.090;-115.340;2023-03-05T01:18:17;85633.80;;;-6.60
74539;BMP180;66042;51.090;-115.340;2023-03-05T01:20:44;85637.40;;;-6.60
74539;BMP180;66042;51.090;-115.340;2023-03-05T01:23:12;85641.40;;;-6.70
74539;BMP180;66042;51.090;-115.340;2023-03-05T01:25:40;85644.80;;;-6.70
74539;BMP180;66042;51.090;-115.340;2023-03-05T01:28:07;85647.00;;;-6.70
74539;BMP180;66042;51.090;-115.340;2023-03-05T01:30:34;85653.60;;;-6.70
74539;BMP180;66042;51.090;-115.340;2023-03-05T01:33:02;85655.00;;;-6.80
74539;BMP180;66042;51.090;-115.340;2023-03-05T01:35:29;85658.00;;;-6.82
74539;BMP180;66042;51.090;-115.340;2023-03-05T01:37:56;85666.80;;;-6.90
74539;BMP180;66042;51.090;-115.340;2023-03-05T01:40:29;85666.60;;;-6.90
74539;BMP180;66042;51.090;-115.340;2023-03-05T01:45:38;85679.60;;;-7.00
74539;BMP180;66042;51.090;-115.340;2023-03-05T01:48:05;85685.80;;;-7.00
74539;BMP180;66042;51.090;-115.340;2023-03-05T01:50:33;85685.00;;;-7.10
74539;BMP180;66042;51.090;-115.340;2023-03-05T01:53:05;85687.00;;;-7.20
74539;BMP180;66042;51.090;-115.340;2023-03-05T01:55:33;85687.00;;;-7.20
74539;BMP180;66042;51.090;-115.340;2023-03-05T01:58:08;85691.00;;;-7.20
74539;BMP180;66042;51.090;-115.340;2023-03-05T02:00:56;85697.40;;;-7.20
74539;BMP180;66042;51.090;-115.340;2023-03-05T02:03:24;85696.00;;;-7.30
74539;BMP180;66042;51.090;-115.340;2023-03-05T02:05:51;85700.00;;;-7.38
74539;BMP180;66042;51.090;-115.340;2023-03-05T02:08:22;85702.20;;;-7.38
74539;BMP180;66042;51.090;-115.340;2023-03-05T02:10:53;85708.00;;;-7.38
74539;BMP180;66042;51.090;-115.340;2023-03-05T02:13:26;85710.40;;;-7.30
74539;BMP180;66042;51.090;-115.340;2023-03-05T02:15:57;85714.80;;;-7.30
74539;BMP180;66042;51.090;-115.340;2023-03-05T02:18:25;85721.60;;;-7.40
74539;BMP180;66042;51.090;-115.340;2023-03-05T02:23:30;85734.80;;;-7.50
74539;BMP180;66042;51.090;-115.340;2023-03-05T02:26:08;85740.00;;;-7.60
74539;BMP180;66042;51.090;-115.340;2023-03-05T02:28:52;85741.20;;;-7.60
74539;BMP180;66042;51.090;-115.340;2023-03-05T02:31:24;85744.20;;;-7.52
74539;BMP180;66042;51.090;-115.340;2023-03-05T02:33:53;85750.60;;;-7.50
74539;BMP180;66042;51.090;-115.340;2023-03-05T02:36:22;85753.80;;;-7.50
74539;BMP180;66042;51.090;-115.340;2023-03-05T02:38:49;85758.60;;;-7.60
74539;BMP180;66042;51.090;-115.340;2023-03-05T02:41:19;85768.00;;;-7.60
74539;BMP180;66042;51.090;-115.340;2023-03-05T02:43:46;85770.40;;;-7.66
74539;BMP180;66042;51.090;-115.340;2023-03-05T02:46:13;85770.00;;;-7.70
74539;BMP180;66042;51.090;-115.340;2023-03-05T02:48:40;85773.00;;;-7.70
74539;BMP180;66042;51.090;-115.340;2023-03-05T02:51:08;85780.00;;;-7.70
74539;BMP180;66042;51.090;-115.340;2023-03-05T02:53:35;85781.00;;;-7.70
74539;BMP180;66042;51.090;-115.340;2023-03-05T02:56:03;85791.80;;;-7.66
74539;BMP180;66042;51.090;-115.340;2023-03-05T02:58:30;85793.40;;;-7.90
74539;BMP180;66042;51.090;-115.340;2023-03-05T03:00:57;85800.00;;;-7.90
74539;BMP180;66042;51.090;-115.340;2023-03-05T03:03:24;85805.40;;;-7.90
74539;BMP180;66042;51.090;-115.340;2023-03-05T03:05:51;85802.20;;;-7.90
74539;BMP180;66042;51.090;-115.340;2023-03-05T03:08:18;85805.40;;;-8.00
74539;BMP180;66042;51.090;-115.340;2023-03-05T03:10:46;85807.20;;;-8.00
74539;BMP180;66042;51.090;-115.340;2023-03-05T03:13:12;85808.60;;;-8.10
74539;BMP180;66042;51.090;-115.340;2023-03-05T03:15:39;85814.00;;;-8.10
74539;BMP180;66042;51.090;-115.340;2023-03-05T03:18:07;85814.60;;;-8.20
74539;BMP180;66042;51.090;-115.340;2023-03-05T03:20:37;85816.40;;;-8.20
74539;BMP180;66042;51.090;-115.340;2023-03-05T03:23:05;85819.60;;;-8.30
74539;BMP180;66042;51.090;-115.340;2023-03-05T03:25:33;85824.40;;;-8.20
74539;BMP180;66042;51.090;-115.340;2023-03-05T03:28:00;85823.60;;;-8.20
74539;BMP180;66042;51.090;-115.340;2023-03-05T03:30:28;85826.80;;;-8.20
74539;BMP180;66042;51.090;-115.340;2023-03-05T03:32:54;85831.80;;;-8.20
74539;BMP180;66042;51.090;-115.340;2023-03-05T03:35:22;85835.60;;;-8.28
74539;BMP180;66042;51.090;-115.340;2023-03-05T03:37:49;85839.20;;;-8.22
74539;BMP180;66042;51.090;-115.340;2023-03-05T03:40:16;85842.80;;;-8.20
74539;BMP180;66042;51.090;-115.340;2023-03-05T03:42:43;85843.00;;;-8.30
74539;BMP180;66042;51.090;-115.340;2023-03-05T03:45:10;85844.60;;;-8.30
74539;BMP180;66042;51.090;-115.340;2023-03-05T03:47:37;85846.00;;;-8.36
74539;BMP180;66042;51.090;-115.340;2023-03-05T03:50:05;85848.00;;;-8.40
74539;BMP180;66042;51.090;-115.340;2023-03-05T03:52:32;85855.00;;;-8.40
74539;BMP180;66042;51.090;-115.340;2023-03-05T03:54:59;85855.20;;;-8.50
74539;BMP180;66042;51.090;-115.340;2023-03-05T03:57:30;85860.20;;;-8.52
74539;BMP180;66042;51.090;-115.340;2023-03-05T03:59:59;85862.20;;;-8.50
74539;BMP180;66042;51.090;-115.340;2023-03-05T04:02:27;85862.80;;;-8.50
74539;BMP180;66042;51.090;-115.340;2023-03-05T04:04:53;85867.20;;;-8.50
74539;BMP180;66042;51.090;-115.340;2023-03-05T04:07:21;85871.00;;;-8.60
74539;BMP180;66042;51.090;-115.340;2023-03-05T04:09:48;85870.40;;;-8.50
74539;BMP180;66042;51.090;-115.340;2023-03-05T04:12:15;85870.40;;;-8.50
74539;BMP180;66042;51.090;-115.340;2023-03-05T04:14:47;85872.60;;;-8.50
74539;BMP180;66042;51.090;-115.340;2023-03-05T04:17:15;85879.00;;;-8.50
74539;BMP180;66042;51.090;-115.340;2023-03-05T04:19:43;85875.60;;;-8.50
74539;BMP180;66042;51.090;-115.340;2023-03-05T04:22:15;85878.80;;;-8.50
74539;BMP180;66042;51.090;-115.340;2023-03-05T04:24:43;85878.60;;;-8.40
74539;BMP180;66042;51.090;-115.340;2023-03-05T04:27:11;85883.60;;;-8.48
74539;BMP180;66042;51.090;-115.340;2023-03-05T04:29:38;85884.40;;;-8.40
74539;BMP180;66042;51.090;-115.340;2023-03-05T04:32:05;85891.60;;;-8.40
74539;BMP180;66042;51.090;-115.340;2023-03-05T04:34:32;85891.40;;;-8.48
74539;BMP180;66042;51.090;-115.340;2023-03-05T04:37:00;85895.00;;;-8.60
74539;BMP180;66042;51.090;-115.340;2023-03-05T04:39:26;85892.20;;;-8.60
74539;BMP180;66042;51.090;-115.340;2023-03-05T04:41:54;85899.40;;;-8.70
74539;BMP180;66042;51.090;-115.340;2023-03-05T04:44:21;85898.00;;;-8.70
74539;BMP180;66042;51.090;-115.340;2023-03-05T04:46:50;85903.60;;;-8.70
74539;BMP180;66042;51.090;-115.340;2023-03-05T04:49:17;85912.60;;;-8.70
74539;BMP180;66042;51.090;-115.340;2023-03-05T04:51:44;85911.40;;;-8.70
74539;BMP180;66042;51.090;-115.340;2023-03-05T04:54:11;85917.20;;;-8.70
74539;BMP180;66042;51.090;-115.340;2023-03-05T04:56:38;85919.20;;;-8.60
74539;BMP180;66042;51.090;-115.340;2023-03-05T04:59:05;85922.20;;;-8.54
74539;BMP180;66042;51.090;-115.340;2023-03-05T05:01:32;85922.00;;;-8.60
74539;BMP180;66042;51.090;-115.340;2023-03-05T05:04:00;85926.20;;;-8.60
74539;BMP180;66042;51.090;-115.340;2023-03-05T05:06:27;85930.20;;;-8.60
74539;BMP180;66042;51.090;-115.340;2023-03-05T05:08:55;85930.80;;;-8.68
74539;BMP180;66042;51.090;-115.340;2023-03-05T05:11:22;85933.40;;;-8.70
74539;BMP180;66042;51.090;-115.340;2023-03-05T05:13:49;85935.00;;;-8.70
74539;BMP180;66042;51.090;-115.340;2023-03-05T05:16:16;85941.80;;;-8.70
74539;BMP180;66042;51.090;-115.340;2023-03-05T05:18:45;85939.00;;;-8.70
74539;BMP180;66042;51.090;-115.340;2023-03-05T05:21:13;85943.60;;;-8.70
74539;BMP180;66042;51.090;-115.340;2023-03-05T05:23:41;85947.80;;;-8.72
74539;BMP180;66042;51.090;-115.340;2023-03-05T05:26:13;85946.00;;;-8.80
74539;BMP180;66042;51.090;-115.340;2023-03-05T05:28:41;85940.20;;;-8.80
74539;BMP180;66042;51.090;-115.340;2023-03-05T05:31:12;85944.60;;;-8.80
74539;BMP180;66042;51.090;-115.340;2023-03-05T05:33:40;85946.80;;;-8.80
74539;BMP180;66042;51.090;-115.340;2023-03-05T05:36:12;85942.40;;;-8.90
74539;BMP180;66042;51.090;-115.340;2023-03-05T05:38:39;85947.80;;;-8.92
74539;BMP180;66042;51.090;-115.340;2023-03-05T05:41:16;85951.20;;;-9.00
74539;BMP180;66042;51.090;-115.340;2023-03-05T05:43:44;85957.40;;;-8.90
74539;BMP180;66042;51.090;-115.340;2023-03-05T05:46:15;85959.60;;;-8.94
74539;BMP180;66042;51.090;-115.340;2023-03-05T05:48:44;85958.60;;;-9.00
74539;BMP180;66042;51.090;-115.340;2023-03-05T05:51:18;85959.40;;;-9.00
74539;BMP180;66042;51.090;-115.340;2023-03-05T05:53:46;85962.20;;;-9.00
74539;BMP180;66042;51.090;-115.340;2023-03-05T05:56:14;85965.40;;;-9.06
74539;BMP180;66042;51.090;-115.340;2023-03-05T05:58:44;85967.40;;;-9.10
74539;BMP180;66042;51.090;-115.340;2023-03-05T06:01:27;85964.60;;;-9.22
74539;BMP180;66042;51.090;-115.340;2023-03-05T06:03:55;85970.20;;;-9.30
74539;BMP180;66042;51.090;-115.340;2023-03-05T06:06:24;85970.20;;;-9.22
74539;BMP180;66042;51.090;-115.340;2023-03-05T06:08:52;85975.80;;;-9.20
74539;BMP180;66042;51.090;-115.340;2023-03-05T06:11:20;85978.80;;;-9.20
74539;BMP180;66042;51.090;-115.340;2023-03-05T06:13:48;85979.20;;;-9.30
74539;BMP180;66042;51.090;-115.340;2023-03-05T06:16:22;85980.60;;;-9.30
74539;BMP180;66042;51.090;-115.340;2023-03-05T06:18:51;85979.40;;;-9.24
74539;BMP180;66042;51.090;-115.340;2023-03-05T06:21:19;85982.00;;;-9.30
74539;BMP180;66042;51.090;-115.340;2023-03-05T06:23:48;85980.80;;;-9.30
74539;BMP180;66042;51.090;-115.340;2023-03-05T06:26:20;85987.40;;;-9.22
74539;BMP180;66042;51.090;-115.340;2023-03-05T06:28:47;85978.80;;;-9.20
74539;BMP180;66042;51.090;-115.340;2023-03-05T06:31:18;85985.80;;;-9.20
74539;BMP180;66042;51.090;-115.340;2023-03-05T06:33:48;85992.60;;;-9.30
74539;BMP180;66042;51.090;-115.340;2023-03-05T06:36:18;85998.40;;;-9.24
74539;BMP180;66042;51.090;-115.340;2023-03-05T06:38:46;85996.00;;;-9.20
74539;BMP180;66042;51.090;-115.340;2023-03-05T06:41:18;85996.40;;;-9.20
74539;BMP180;66042;51.090;-115.340;2023-03-05T06:43:47;86000.00;;;-9.20
74539;BMP180;66042;51.090;-115.340;2023-03-05T06:46:27;85998.60;;;-9.18
74539;BMP180;66042;51.090;-115.340;2023-03-05T06:48:58;86003.20;;;-9.26
74539;BMP180;66042;51.090;-115.340;2023-03-05T06:51:31;86001.80;;;-9.30
74539;BMP180;66042;51.090;-115.340;2023-03-05T06:54:08;86006.00;;;-9.30
74539;BMP180;66042;51.090;-115.340;2023-03-05T06:56:39;86011.80;;;-9.30
74539;BMP180;66042;51.090;-115.340;2023-03-05T06:59:08;86018.00;;;-9.30
74539;BMP180;66042;51.090;-115.340;2023-03-05T07:01:35;86018.00;;;-9.30
74539;BMP180;66042;51.090;-115.340;2023-03-05T07:04:02;86018.40;;;-9.30
74539;BMP180;66042;51.090;-115.340;2023-03-05T07:06:35;86019.40;;;-9.30
74539;BMP180;66042;51.090;-115.340;2023-03-05T07:09:05;86021.80;;;-9.30
74539;BMP180;66042;51.090;-115.340;2023-03-05T07:11:33;86032.40;;;-9.26
74539;BMP180;66042;51.090;-115.340;2023-03-05T07:14:01;86027.60;;;-9.20
74539;BMP180;66042;51.090;-115.340;2023-03-05T07:16:31;86029.20;;;-9.20
74539;BMP180;66042;51.090;-115.340;2023-03-05T07:19:01;86028.40;;;-9.30
74539;BMP180;66042;51.090;-115.340;2023-03-05T07:21:32;86032.20;;;-9.40
74539;BMP180;66042;51.090;-115.340;2023-03-05T07:24:01;86031.40;;;-9.40
74539;BMP180;66042;51.090;-115.340;2023-03-05T07:26:30;86032.00;;;-9.30
74539;BMP180;66042;51.090;-115.340;2023-03-05T07:28:58;86036.80;;;-9.30
74539;BMP180;66042;51.090;-115.340;2023-03-05T07:31:26;86040.40;;;-9.38
74539;BMP180;66042;51.090;-115.340;2023-03-05T07:33:57;86041.60;;;-9.32
74539;BMP180;66042;51.090;-115.340;2023-03-05T07:36:25;86042.40;;;-9.30
74539;BMP180;66042;51.090;-115.340;2023-03-05T07:38:53;86042.20;;;-9.30
74539;BMP180;66042;51.090;-115.340;2023-03-05T07:41:22;86046.20;;;-9.30
74539;BMP180;66042;51.090;-115.340;2023-03-05T07:43:51;86049.40;;;-9.30
74539;BMP180;66042;51.090;-115.340;2023-03-05T07:46:23;86053.00;;;-9.30
74539;BMP180;66042;51.090;-115.340;2023-03-05T07:48:50;86052.60;;;-9.32
74539;BMP180;66042;51.090;-115.340;2023-03-05T07:51:18;86054.00;;;-9.40
74539;BMP180;66042;51.090;-115.340;2023-03-05T07:53:48;86053.40;;;-9.50
74539;BMP180;66042;51.090;-115.340;2023-03-05T07:56:34;86058.00;;;-9.50
74539;BMP180;66042;51.090;-115.340;2023-03-05T07:59:07;86056.20;;;-9.70
74539;BMP180;66042;51.090;-115.340;2023-03-05T08:01:36;86061.20;;;-9.80
74539;BMP180;66042;51.090;-115.340;2023-03-05T08:04:05;86055.20;;;-9.80
74539;BMP180;66042;51.090;-115.340;2023-03-05T08:06:32;86061.80;;;-9.78
74539;BMP180;66042;51.090;-115.340;2023-03-05T08:08:59;86062.60;;;-9.80
74539;BMP180;66042;51.090;-115.340;2023-03-05T08:11:26;86066.40;;;-9.70
74539;BMP180;66042;51.090;-115.340;2023-03-05T08:13:54;86064.00;;;-9.80
74539;BMP180;66042;51.090;-115.340;2023-03-05T08:16:25;86062.60;;;-9.88
74539;BMP180;66042;51.090;-115.340;2023-03-05T08:18:55;86066.40;;;-9.80
74539;BMP180;66042;51.090;-115.340;2023-03-05T08:21:27;86070.00;;;-9.90
74539;BMP180;66042;51.090;-115.340;2023-03-05T08:23:56;86069.00;;;-10.00
74539;BMP180;66042;51.090;-115.340;2023-03-05T08:26:26;86079.00;;;-10.00
74539;BMP180;66042;51.090;-115.340;2023-03-05T08:28:54;86077.60;;;-10.00
74539;BMP180;66042;51.090;-115.340;2023-03-05T08:31:23;86077.00;;;-9.90
74539;BMP180;66042;51.090;-115.340;2023-03-05T08:33:55;86080.40;;;-9.90
74539;BMP180;66042;51.090;-115.340;2023-03-05T08:36:22;86077.60;;;-9.90
74539;BMP180;66042;51.090;-115.340;2023-03-05T08:38:49;86082.20;;;-10.00
74539;BMP180;66042;51.090;-115.340;2023-03-05T08:41:18;86079.20;;;-10.10
74539;BMP180;66042;51.090;-115.340;2023-03-05T08:43:45;86078.80;;;-10.20
74539;BMP180;66042;51.090;-115.340;2023-03-05T08:46:14;86078.00;;;-10.20
74539;BMP180;66042;51.090;-115.340;2023-03-05T08:48:41;86077.60;;;-10.20
74539;BMP180;66042;51.090;-115.340;2023-03-05T08:51:12;86082.60;;;-10.30
74539;BMP180;66042;51.090;-115.340;2023-03-05T08:53:42;86086.40;;;-10.48
74539;BMP180;66042;51.090;-115.340;2023-03-05T08:56:09;86092.40;;;-10.50
74539;BMP180;66042;51.090;-115.340;2023-03-05T08:58:36;86093.80;;;-10.50
74539;BMP180;66042;51.090;-115.340;2023-03-05T09:01:04;86092.60;;;-10.60
74539;BMP180;66042;51.090;-115.340;2023-03-05T09:03:32;86100.00;;;-10.62
74539;BMP180;66042;51.090;-115.340;2023-03-05T09:06:02;86107.40;;;-10.70
74539;BMP180;66042;51.090;-115.340;2023-03-05T09:08:31;86110.80;;;-10.70
74539;BMP180;66042;51.090;-115.340;2023-03-05T09:11:01;86113.40;;;-10.70
74539;BMP180;66042;51.090;-115.340;2023-03-05T09:13:29;86113.40;;;-10.70
74539;BMP180;66042;51.090;-115.340;2023-03-05T09:16:04;86119.20;;;-10.70
74539;BMP180;66042;51.090;-115.340;2023-03-05T09:18:32;86119.20;;;-10.70
74539;BMP180;66042;51.090;-115.340;2023-03-05T09:21:07;86116.60;;;-10.70
74539;BMP180;66042;51.090;-115.340;2023-03-05T09:23:34;86122.60;;;-10.70
74539;BMP180;66042;51.090;-115.340;2023-03-05T09:26:04;86115.60;;;-10.80
74539;BMP180;66042;51.090;-115.340;2023-03-05T09:28:32;86120.40;;;-10.90
74539;BMP180;66042;51.090;-115.340;2023-03-05T09:31:05;86116.80;;;-10.90
74539;BMP180;66042;51.090;-115.340;2023-03-05T09:33:34;86119.20;;;-10.90
74539;BMP180;66042;51.090;-115.340;2023-03-05T09:36:03;86120.40;;;-10.90
74539;BMP180;66042;51.090;-115.340;2023-03-05T09:38:31;86118.80;;;-10.90
74539;BMP180;66042;51.090;-115.340;2023-03-05T09:41:32;86117.20;;;-11.00
74539;BMP180;66042;51.090;-115.340;2023-03-05T09:52:53;86110.00;;;-11.10
74539;BMP180;66042;51.090;-115.340;2023-03-05T09:55:52;86107.00;;;-11.14
74539;BMP180;66042;51.090;-115.340;2023-03-05T10:01:38;86106.80;;;-11.10
74539;BMP180;66042;51.090;-115.340;2023-03-05T10:05:03;86107.20;;;-11.12
74539;BMP180;66042;51.090;-115.340;2023-03-05T10:07:40;86108.00;;;-11.20
74539;BMP180;66042;51.090;-115.340;2023-03-05T10:10:22;86108.00;;;-11.12
74539;BMP180;66042;51.090;-115.340;2023-03-05T10:13:00;86107.80;;;-11.20
74539;BMP180;66042;51.090;-115.340;2023-03-05T10:22:52;86104.40;;;-11.30
74539;BMP180;66042;51.090;-115.340;2023-03-05T10:25:08;86107.80;;;-11.30
74539;BMP180;66042;51.090;-115.340;2023-03-05T10:28:10;86111.60;;;-11.32
74539;BMP180;66042;51.090;-115.340;2023-03-05T10:36:47;86106.20;;;-11.50
74539;BMP180;66042;51.090;-115.340;2023-03-05T10:39:51;86112.40;;;-11.50
74539;BMP180;66042;51.090;-115.340;2023-03-05T10:45:38;86108.60;;;-11.50
74539;BMP180;66042;51.090;-115.340;2023-03-05T10:48:35;86108.60;;;-11.50
74539;BMP180;66042;51.090;-115.340;2023-03-05T10:51:26;86115.60;;;-11.70
74539;BMP180;66042;51.090;-115.340;2023-03-05T10:54:29;86110.00;;;-11.80
74539;BMP180;66042;51.090;-115.340;2023-03-05T10:57:24;86111.40;;;-11.82
74539;BMP180;66042;51.090;-115.340;2023-03-05T11:02:26;86114.00;;;-11.80
74539;BMP180;66042;51.090;-115.340;2023-03-05T11:04:53;86119.80;;;-11.80
74539;BMP180;66042;51.090;-115.340;2023-03-05T11:10:01;86121.40;;;-11.90
74539;BMP180;66042;51.090;-115.340;2023-03-05T11:12:35;86121.40;;;-12.00
74539;BMP180;66042;51.090;-115.340;2023-03-05T11:15:27;86121.00;;;-12.10
74539;BMP180;66042;51.090;-115.340;2023-03-05T11:18:17;86119.40;;;-12.00
74539;BMP180;66042;51.090;-115.340;2023-03-05T11:20:44;86125.20;;;-12.00
74539;BMP180;66042;51.090;-115.340;2023-03-05T11:23:22;86124.60;;;-12.10
74539;BMP180;66042;51.090;-115.340;2023-03-05T11:26:15;86125.60;;;-12.10
74539;BMP180;66042;51.090;-115.340;2023-03-05T11:29:24;86134.40;;;-12.10
74539;BMP180;66042;51.090;-115.340;2023-03-05T11:31:53;86137.60;;;-12.10
74539;BMP180;66042;51.090;-115.340;2023-03-05T11:34:25;86140.20;;;-12.20
74539;BMP180;66042;51.090;-115.340;2023-03-05T11:39:24;86146.00;;;-12.30
74539;BMP180;66042;51.090;-115.340;2023-03-05T11:41:58;86152.40;;;-12.30
74539;BMP180;66042;51.090;-115.340;2023-03-05T11:44:51;86162.00;;;-12.30
74539;BMP180;66042;51.090;-115.340;2023-03-05T11:50:28;86162.80;;;-12.50
74539;BMP180;66042;51.090;-115.340;2023-03-05T11:53:27;86168.60;;;-12.50
74539;BMP180;66042;51.090;-115.340;2023-03-05T11:58:59;86177.80;;;-12.50
74539;BMP180;66042;51.090;-115.340;2023-03-05T12:01:33;86187.80;;;-12.60
74539;BMP180;66042;51.090;-115.340;2023-03-05T12:04:03;86187.40;;;-12.70
74539;BMP180;66042;51.090;-115.340;2023-03-05T12:06:49;86189.80;;;-12.70
74539;BMP180;66042;51.090;-115.340;2023-03-05T12:18:13;86201.40;;;-12.78
74539;BMP180;66042;51.090;-115.340;2023-03-05T12:24:02;86207.40;;;-12.88
74539;BMP180;66042;51.090;-115.340;2023-03-05T12:35:42;86206.20;;;-13.00
74539;BMP180;66042;51.090;-115.340;2023-03-05T12:38:30;86211.60;;;-13.00
74539;BMP180;66042;51.090;-115.340;2023-03-05T12:46:42;86218.00;;;-13.10
74539;BMP180;66042;51.090;-115.340;2023-03-05T12:51:49;86216.60;;;-13.00
74539;BMP180;66042;51.090;-115.340;2023-03-05T12:54:32;86218.40;;;-13.10
74539;BMP180;66042;51.090;-115.340;2023-03-05T12:57:18;86224.40;;;-13.10
74539;BMP180;66042;51.090;-115.340;2023-03-05T13:02:44;86234.40;;;-13.00
74539;BMP180;66042;51.090;-115.340;2023-03-05T13:05:24;86234.20;;;-13.06
74539;BMP180;66042;51.090;-115.340;2023-03-05T13:07:52;86238.40;;;-13.00
74539;BMP180;66042;51.090;-115.340;2023-03-05T13:10:34;86241.60;;;-13.00
74539;BMP180;66042;51.090;-115.340;2023-03-05T13:13:01;86239.00;;;-13.06
74539;BMP180;66042;51.090;-115.340;2023-03-05T13:15:29;86242.20;;;-13.10
74539;BMP180;66042;51.090;-115.340;2023-03-05T13:18:02;86247.80;;;-13.10
74539;BMP180;66042;51.090;-115.340;2023-03-05T13:20:40;86246.00;;;-13.12
74539;BMP180;66042;51.090;-115.340;2023-03-05T13:26:18;86259.00;;;-13.20
74539;BMP180;66042;51.090;-115.340;2023-03-05T13:31:45;86268.80;;;-13.20
74539;BMP180;66042;51.090;-115.340;2023-03-05T13:34:27;86270.40;;;-13.20
74539;BMP180;66042;51.090;-115.340;2023-03-05T13:37:15;86267.60;;;-13.20
74539;BMP180;66042;51.090;-115.340;2023-03-05T13:42:34;86261.20;;;-13.34
74539;BMP180;66042;51.090;-115.340;2023-03-05T13:50:39;86270.00;;;-13.40
74539;BMP180;66042;51.090;-115.340;2023-03-05T13:53:29;86275.00;;;-13.46
74539;BMP180;66042;51.090;-115.340;2023-03-05T13:56:03;86277.60;;;-13.50
74539;BMP180;66042;51.090;-115.340;2023-03-05T13:58:56;86280.60;;;-13.60
74539;BMP180;66042;51.090;-115.340;2023-03-05T14:01:32;86280.40;;;-13.70
74539;BMP180;66042;51.090;-115.340;2023-03-05T14:04:33;86284.40;;;-13.70
74539;BMP180;66042;51.090;-115.340;2023-03-05T14:07:32;86289.20;;;-13.80
74539;BMP180;66042;51.090;-115.340;2023-03-05T14:10:25;86288.80;;;-13.80
74539;BMP180;66042;51.090;-115.340;2023-03-05T14:12:54;86284.20;;;-13.80
74539;BMP180;66042;51.090;-115.340;2023-03-05T14:15:34;86283.80;;;-13.80
74539;BMP180;66042;51.090;-115.340;2023-03-05T14:21:00;86292.20;;;-13.80
74539;BMP180;66042;51.090;-115.340;2023-03-05T14:23:44;86296.00;;;-13.80
74539;BMP180;66042;51.090;-115.340;2023-03-05T14:34:37;86304.00;;;-13.90
74539;BMP180;66042;51.090;-115.340;2023-03-05T14:37:38;86291.80;;;-13.92
74539;BMP180;66042;51.090;-115.340;2023-03-05T14:40:21;86297.80;;;-13.90
74539;BMP180;66042;51.090;-115.340;2023-03-05T14:43:09;86299.20;;;-13.90
74539;BMP180;66042;51.090;-115.340;2023-03-05T14:45:39;86294.20;;;-13.84
74539;BMP180;66042;51.090;-115.340;2023-03-05T14:48:13;86294.60;;;-13.80
74539;BMP180;66042;51.090;-115.340;2023-03-05T14:50:49;86300.60;;;-13.80
74539;BMP180;66042;51.090;-115.340;2023-03-05T14:53:22;86305.20;;;-13.76
74539;BMP180;66042;51.090;-115.340;2023-03-05T14:55:53;86312.60;;;-13.74
74539;BMP180;66042;51.090;-115.340;2023-03-05T14:58:28;86315.40;;;-13.80
74539;BMP180;66042;51.090;-115.340;2023-03-05T15:00:58;86316.60;;;-13.80
74539;BMP180;66042;51.090;-115.340;2023-03-05T15:03:26;86323.40;;;-13.80
74539;BMP180;66042;51.090;-115.340;2023-03-05T15:05:57;86325.60;;;-13.80
74539;BMP180;66042;51.090;-115.340;2023-03-05T15:08:30;86324.60;;;-13.80
74539;BMP180;66042;51.090;-115.340;2023-03-05T15:10:59;86323.20;;;-13.80
74539;BMP180;66042;51.090;-115.340;2023-03-05T15:13:26;86328.80;;;-13.70
74539;BMP180;66042;51.090;-115.340;2023-03-05T15:15:54;86327.20;;;-13.66
74539;BMP180;66042;51.090;-115.340;2023-03-05T15:18:21;86322.00;;;-13.70
74539;BMP180;66042;51.090;-115.340;2023-03-05T15:20:49;86324.80;;;-13.70
74539;BMP180;66042;51.090;-115.340;2023-03-05T15:23:20;86328.80;;;-13.70
74539;BMP180;66042;51.090;-115.340;2023-03-05T15:25:47;86331.80;;;-13.70
74539;BMP180;66042;51.090;-115.340;2023-03-05T15:28:14;86335.20;;;-13.70
74539;BMP180;66042;51.090;-115.340;2023-03-05T15:30:45;86339.60;;;-13.62
74539;BMP180;66042;51.090;-115.340;2023-03-05T15:33:15;86343.40;;;-13.58
74539;BMP180;66042;51.090;-115.340;2023-03-05T15:35:43;86344.20;;;-13.50
74539;BMP180;66042;51.090;-115.340;2023-03-05T15:38:10;86354.00;;;-13.50
74539;BMP180;66042;51.090;-115.340;2023-03-05T15:40:38;86354.60;;;-13.42